createdAt,value
2017-10-24T00:01:19.003Z,100373.27
2017-10-24T00:03:44.946Z,100374.09
2017-10-24T00:06:10.887Z,100374.91
2017-10-24T00:08:36.851Z,100383.73
2017-10-24T00:11:02.775Z,100378.63
2017-10-24T00:13:28.699Z,100377.34
2017-10-24T00:15:54.631Z,100381.28
2017-10-24T00:18:20.561Z,100386.34
2017-10-24T00:20:46.502Z,100387.59
2017-10-24T00:23:12.445Z,100390.13
2017-10-24T00:25:38.385Z,100389.27
2017-10-24T00:28:04.336Z,100387.12
2017-10-24T00:30:30.293Z,100394.34
2017-10-24T00:32:56.219Z,100391.47
2017-10-24T00:35:22.159Z,100397.30
2017-10-24T00:37:48.102Z,100388.91
2017-10-24T00:40:14.060Z,100387.23
2017-10-24T00:42:40.023Z,100382.99
2017-10-24T00:45:05.971Z,100367.20
2017-10-24T00:47:31.971Z,100391.78
2017-10-24T00:49:57.987Z,100395.55
2017-10-24T00:52:23.971Z,100392.09
2017-10-24T00:54:49.932Z,100398.50
2017-10-24T00:57:15.890Z,100403.09
2017-10-24T00:59:41.867Z,100402.34
2017-10-24T01:02:07.800Z,100404.02
2017-10-24T01:04:33.753Z,100402.36
2017-10-24T01:06:59.707Z,100400.17
2017-10-24T01:09:25.639Z,100405.72
2017-10-24T01:11:51.587Z,100397.27
2017-10-24T01:14:17.565Z,100397.88
2017-10-24T01:16:43.486Z,100403.92
2017-10-24T01:19:09.409Z,100405.08
2017-10-24T01:21:35.393Z,100406.58
2017-10-24T01:24:01.348Z,100412.03
2017-10-24T01:26:27.312Z,100406.27
2017-10-24T01:28:53.267Z,100406.73
2017-10-24T01:31:19.207Z,100409.48
2017-10-24T01:33:45.161Z,100414.45
2017-10-24T01:36:11.181Z,100412.96
2017-10-24T01:38:37.125Z,100408.96
2017-10-24T01:41:03.066Z,100415.30
2017-10-24T01:43:29.017Z,100411.52
2017-10-24T01:45:54.979Z,100411.09
2017-10-24T01:48:20.925Z,100408.52
2017-10-24T01:50:46.865Z,100413.28
2017-10-24T01:53:12.815Z,100417.83
2017-10-24T01:55:38.745Z,100419.78
2017-10-24T01:58:04.690Z,100415.84
2017-10-24T02:00:30.633Z,100417.69
2017-10-24T02:02:56.575Z,100416.01
2017-10-24T02:05:22.506Z,100405.91
2017-10-24T02:07:48.505Z,100408.63
2017-10-24T02:10:14.449Z,100410.11
2017-10-24T02:12:40.393Z,100412.97
2017-10-24T02:15:06.332Z,100409.54
2017-10-24T02:17:32.281Z,100419.21
2017-10-24T02:19:58.265Z,100415.11
2017-10-24T02:22:24.231Z,100419.38
2017-10-24T02:24:50.262Z,100411.85
2017-10-24T02:27:16.217Z,100415.48
2017-10-24T02:29:42.159Z,100420.08
2017-10-24T02:32:08.110Z,100419.20
2017-10-24T02:34:34.048Z,100422.59
2017-10-24T02:36:59.982Z,100424.81
2017-10-24T02:39:25.915Z,100425.15
2017-10-24T02:41:51.858Z,100433.76
2017-10-24T02:44:17.802Z,100437.19
2017-10-24T02:46:43.740Z,100432.09
2017-10-24T02:49:09.691Z,100431.00
2017-10-24T02:51:35.660Z,100434.34
2017-10-24T02:54:01.607Z,100445.50
2017-10-24T02:56:27.542Z,100439.85
2017-10-24T02:58:53.486Z,100443.65
2017-10-24T03:01:19.459Z,100448.54
2017-10-24T03:03:45.382Z,100442.52
2017-10-24T03:06:11.323Z,100446.36
2017-10-24T03:08:37.320Z,100447.27
2017-10-24T03:11:03.244Z,100448.99
2017-10-24T03:13:29.200Z,100453.30
2017-10-24T03:15:55.154Z,100457.45
2017-10-24T03:18:21.100Z,100459.19
2017-10-24T03:20:47.023Z,100461.77
2017-10-24T03:23:12.970Z,100469.52
2017-10-24T03:25:38.938Z,100465.64
2017-10-24T03:28:04.912Z,100463.59
2017-10-24T03:35:35.751Z,100469.97
2017-10-24T03:38:01.689Z,100472.06
2017-10-24T03:40:27.633Z,100475.39
2017-10-24T03:42:53.644Z,100473.77
2017-10-24T03:45:19.572Z,100471.23
2017-10-24T03:47:45.528Z,100480.41
2017-10-24T03:50:11.481Z,100476.31
2017-10-24T03:52:37.422Z,100475.02
2017-10-24T03:55:03.376Z,100477.48
2017-10-24T03:57:29.354Z,100478.02
2017-10-24T03:59:55.302Z,100474.56
2017-10-24T04:02:21.378Z,100471.89
2017-10-24T04:04:47.317Z,100471.13
2017-10-24T04:07:13.254Z,100479.50
2017-10-24T04:09:39.196Z,100478.02
2017-10-24T04:12:05.127Z,100477.13
2017-10-24T04:14:31.121Z,100482.97
2017-10-24T04:16:57.060Z,100487.47
2017-10-24T04:19:22.998Z,100493.18
2017-10-24T04:21:48.933Z,100489.30
2017-10-24T04:24:14.900Z,100491.37
2017-10-24T04:26:40.845Z,100506.65
2017-10-24T04:29:06.816Z,100509.18
2017-10-24T04:31:32.772Z,100507.16
2017-10-24T04:33:58.712Z,100509.30
2017-10-24T04:36:24.723Z,100511.37
2017-10-24T04:38:50.694Z,100513.58
2017-10-24T04:41:16.655Z,100515.20
2017-10-24T04:43:42.618Z,100511.86
2017-10-24T04:46:08.564Z,100515.97
2017-10-24T04:48:34.517Z,100516.03
2017-10-24T04:51:00.462Z,100516.80
2017-10-24T04:53:26.456Z,100520.14
2017-10-24T04:55:52.413Z,100518.55
2017-10-24T04:58:18.367Z,100518.41
2017-10-24T05:00:44.310Z,100525.30
2017-10-24T05:03:10.245Z,100525.81
2017-10-24T05:05:36.185Z,100529.59
2017-10-24T05:08:02.125Z,100532.67
2017-10-24T05:10:28.060Z,100537.66
2017-10-24T05:12:53.998Z,100537.25
2017-10-24T05:15:19.942Z,100539.74
2017-10-24T05:17:45.907Z,100542.31
2017-10-24T05:20:11.841Z,100541.16
2017-10-24T05:22:37.878Z,100541.53
2017-10-24T05:25:03.835Z,100536.30
2017-10-24T05:27:29.773Z,100542.22
2017-10-24T05:29:55.718Z,100544.04
2017-10-24T05:32:21.680Z,100540.34
2017-10-24T05:34:47.617Z,100543.58
2017-10-24T05:37:13.562Z,100546.63
2017-10-24T05:39:39.508Z,100538.98
2017-10-24T05:42:05.436Z,100544.66
2017-10-24T05:44:31.401Z,100550.25
2017-10-24T05:46:57.341Z,100552.04
2017-10-24T05:49:23.295Z,100557.00
2017-10-24T05:51:49.233Z,100554.43
2017-10-24T05:54:15.212Z,100559.23
2017-10-24T05:56:41.159Z,100562.51
2017-10-24T05:59:07.114Z,100564.04
2017-10-24T06:01:33.068Z,100565.41
2017-10-24T06:03:59.020Z,100563.25
2017-10-24T06:06:24.980Z,100563.20
2017-10-24T06:08:50.940Z,100564.12
2017-10-24T06:11:16.874Z,100562.22
2017-10-24T06:13:42.812Z,100562.43
2017-10-24T06:16:08.774Z,100566.81
2017-10-24T06:18:34.728Z,100582.97
2017-10-24T06:21:01.287Z,100568.75
2017-10-24T06:23:27.236Z,100579.69
2017-10-24T06:25:53.197Z,100577.26
2017-10-24T06:28:19.162Z,100585.31
2017-10-24T06:30:45.100Z,100591.51
2017-10-24T06:33:11.044Z,100590.80
2017-10-24T06:35:36.986Z,100593.78
2017-10-24T06:38:02.949Z,100590.31
2017-10-24T06:40:28.892Z,100594.91
2017-10-24T06:42:54.840Z,100596.88
2017-10-24T06:45:20.816Z,100601.63
2017-10-24T06:47:46.809Z,100602.09
2017-10-24T06:50:12.740Z,100604.74
2017-10-24T06:52:38.668Z,100615.41
2017-10-24T06:55:04.645Z,100609.97
2017-10-24T06:57:30.580Z,100616.19
2017-10-24T06:59:56.526Z,100613.66
2017-10-24T07:02:22.475Z,100616.09
2017-10-24T07:04:48.424Z,100611.92
2017-10-24T07:07:14.383Z,100618.48
2017-10-24T07:09:40.324Z,100633.66
2017-10-24T07:12:06.326Z,100638.14
2017-10-24T07:14:32.278Z,100634.34
2017-10-24T07:16:58.257Z,100642.13
2017-10-24T07:19:24.227Z,100641.80
2017-10-24T07:21:50.161Z,100647.39
2017-10-24T07:24:16.100Z,100650.75
2017-10-24T07:26:42.048Z,100651.13
2017-10-24T07:29:08.013Z,100653.70
2017-10-24T07:31:33.941Z,100655.38
2017-10-24T07:33:59.884Z,100652.45
2017-10-24T07:36:25.926Z,100652.91
2017-10-24T07:38:51.904Z,100655.54
2017-10-24T07:41:17.871Z,100660.14
2017-10-24T07:43:43.846Z,100664.45
2017-10-24T07:46:09.802Z,100663.64
2017-10-24T07:48:35.784Z,100672.48
2017-10-24T07:51:01.761Z,100667.32
2017-10-24T07:53:27.718Z,100665.64
2017-10-24T07:55:53.663Z,100665.80
2017-10-24T07:58:19.696Z,100674.68
2017-10-24T08:00:45.636Z,100669.97
2017-10-24T08:03:11.575Z,100662.48
2017-10-24T08:05:37.516Z,100675.95
2017-10-24T08:08:03.523Z,100676.41
2017-10-24T08:10:29.507Z,100676.00
2017-10-24T08:12:55.500Z,100682.73
2017-10-24T08:15:21.507Z,100685.38
2017-10-24T08:17:47.470Z,100686.22
2017-10-24T08:20:13.436Z,100682.67
2017-10-24T08:22:39.370Z,100680.66
2017-10-24T08:25:05.306Z,100682.75
2017-10-24T08:27:31.280Z,100682.80
2017-10-24T08:29:57.220Z,100676.92
2017-10-24T08:32:23.161Z,100675.72
2017-10-24T08:34:49.092Z,100679.14
2017-10-24T08:37:15.031Z,100677.05
2017-10-24T08:39:40.969Z,100673.23
2017-10-24T08:42:06.921Z,100672.05
2017-10-24T08:44:32.883Z,100673.74
2017-10-24T08:46:58.854Z,100682.24
2017-10-24T08:49:24.808Z,100680.11
2017-10-24T08:51:50.798Z,100672.52
2017-10-24T08:54:16.749Z,100670.42
2017-10-24T08:56:42.696Z,100669.12
2017-10-24T08:59:08.661Z,100673.37
2017-10-24T09:01:34.617Z,100673.39
2017-10-24T09:04:00.564Z,100663.69
2017-10-24T09:06:26.539Z,100665.36
2017-10-24T09:08:52.484Z,100665.83
2017-10-24T09:11:18.466Z,100661.61
2017-10-24T09:13:44.489Z,100659.48
2017-10-24T09:16:10.430Z,100665.84
2017-10-24T09:18:36.410Z,100659.91
2017-10-24T09:21:02.408Z,100655.69
2017-10-24T09:23:28.401Z,100658.22
2017-10-24T09:25:54.420Z,100661.20
2017-10-24T09:28:20.388Z,100659.11
2017-10-24T09:30:46.466Z,100658.69
2017-10-24T09:33:12.464Z,100652.36
2017-10-24T09:35:38.444Z,100656.99
2017-10-24T09:38:04.430Z,100660.39
2017-10-24T09:40:30.420Z,100661.22
2017-10-24T09:42:56.380Z,100662.08
2017-10-24T09:45:22.334Z,100667.16
2017-10-24T09:47:48.333Z,100664.63
2017-10-24T09:50:15.210Z,100667.63
2017-10-24T09:52:41.244Z,100670.58
2017-10-24T09:55:07.197Z,100676.09
2017-10-24T09:57:33.206Z,100679.07
2017-10-24T09:59:59.168Z,100671.88
2017-10-24T10:02:25.175Z,100668.51
2017-10-24T10:04:51.182Z,100663.41
2017-10-24T10:07:17.176Z,100671.05
2017-10-24T10:09:43.163Z,100665.08
2017-10-24T10:12:09.185Z,100660.01
2017-10-24T10:14:35.145Z,100660.83
2017-10-24T10:17:01.079Z,100659.17
2017-10-24T10:19:27.064Z,100649.40
2017-10-24T10:21:53.016Z,100646.03
2017-10-24T10:24:18.950Z,100641.35
2017-10-24T10:26:44.906Z,100636.29
2017-10-24T10:29:10.892Z,100632.03
2017-10-24T10:31:36.861Z,100629.54
2017-10-24T10:34:02.826Z,100630.78
2017-10-24T10:36:28.801Z,100630.78
2017-10-24T10:38:54.777Z,100634.17
2017-10-24T10:41:20.742Z,100629.52
2017-10-24T10:43:46.760Z,100635.03
2017-10-24T10:46:12.716Z,100632.51
2017-10-24T10:48:38.674Z,100630.36
2017-10-24T10:51:04.645Z,100626.55
2017-10-24T10:53:30.733Z,100624.44
2017-10-24T10:55:56.682Z,100624.03
2017-10-24T10:58:22.678Z,100623.14
2017-10-24T11:00:48.624Z,100618.48
2017-10-24T11:03:14.562Z,100611.30
2017-10-24T11:05:40.535Z,100613.87
2017-10-24T11:08:06.604Z,100615.98
2017-10-24T11:10:32.592Z,100616.39
2017-10-24T11:12:58.558Z,100608.34
2017-10-24T11:15:24.531Z,100607.52
2017-10-24T11:17:50.502Z,100605.81
2017-10-24T11:20:16.454Z,100602.84
2017-10-24T11:22:42.386Z,100607.09
2017-10-24T11:25:08.360Z,100603.70
2017-10-24T11:27:34.304Z,100604.53
2017-10-24T11:30:00.268Z,100595.64
2017-10-24T11:32:26.280Z,100598.62
2017-10-24T11:34:52.252Z,100588.88
2017-10-24T11:37:18.265Z,100596.48
2017-10-24T11:39:44.347Z,100595.23
2017-10-24T11:42:10.884Z,100594.38
2017-10-24T11:44:36.881Z,100591.84
2017-10-24T11:47:02.837Z,100603.70
2017-10-24T11:49:28.817Z,100594.80
2017-10-24T11:51:54.796Z,100596.91
2017-10-24T11:54:20.764Z,100592.69
2017-10-24T11:56:46.740Z,100591.41
2017-10-24T11:59:12.731Z,100593.94
2017-10-24T12:01:38.684Z,100597.78
2017-10-24T12:04:04.737Z,100604.11
2017-10-24T12:06:30.714Z,100604.15
2017-10-24T12:08:56.679Z,100600.73
2017-10-24T12:11:22.658Z,100592.25
2017-10-24T12:13:48.626Z,100588.48
2017-10-24T12:16:14.617Z,100598.19
2017-10-24T12:18:40.602Z,100597.34
2017-10-24T12:21:06.604Z,100584.22
2017-10-24T12:23:32.566Z,100593.09
2017-10-24T12:25:58.527Z,100595.63
2017-10-24T12:28:24.520Z,100596.52
2017-10-24T12:30:50.576Z,100604.55
2017-10-24T12:33:16.896Z,100602.01
2017-10-24T12:35:42.868Z,100601.16
2017-10-24T12:38:08.838Z,100613.43
2017-10-24T12:40:34.808Z,100613.02
2017-10-24T12:43:00.809Z,100615.13
2017-10-24T12:45:26.782Z,100613.03
2017-10-24T12:47:52.762Z,100603.30
2017-10-24T12:50:18.775Z,100597.38
2017-10-24T12:52:44.754Z,100598.65
2017-10-24T12:55:10.746Z,100598.61
2017-10-24T12:57:36.718Z,100590.58
2017-10-24T13:00:02.678Z,100586.34
2017-10-24T13:02:28.617Z,100582.91
2017-10-24T13:04:54.598Z,100588.86
2017-10-24T13:07:20.549Z,100584.62
2017-10-24T13:09:46.513Z,100591.41
2017-10-24T13:12:12.462Z,100583.36
2017-10-24T13:14:38.426Z,100585.91
2017-10-24T13:17:04.397Z,100586.34
2017-10-24T13:19:30.333Z,100585.89
2017-10-24T13:21:56.522Z,100584.23
2017-10-24T13:24:22.587Z,100576.62
2017-10-24T13:26:48.604Z,100574.91
2017-10-24T13:29:14.732Z,100579.14
2017-10-24T13:31:40.690Z,100579.98
2017-10-24T13:34:06.678Z,100582.96
2017-10-24T13:36:32.641Z,100585.06
2017-10-24T13:38:58.590Z,100582.55
2017-10-24T13:41:24.549Z,100574.05
2017-10-24T13:43:50.508Z,100568.98
2017-10-24T13:46:16.501Z,100568.57
2017-10-24T13:48:42.462Z,100562.63
2017-10-24T13:51:08.738Z,100555.83
2017-10-24T13:53:34.735Z,100567.70
2017-10-24T13:56:00.754Z,100574.05
2017-10-24T13:58:26.712Z,100569.41
2017-10-24T14:00:52.644Z,100569.81
2017-10-24T14:03:18.644Z,100571.10
2017-10-24T14:05:44.608Z,100566.02
2017-10-24T14:08:10.584Z,100566.02
2017-10-24T14:10:36.534Z,100562.20
2017-10-24T14:13:02.479Z,100558.82
2017-10-24T14:15:28.453Z,100557.95
2017-10-24T14:17:54.410Z,100553.30
2017-10-24T14:20:20.388Z,100551.19
2017-10-24T14:22:46.344Z,100552.88
2017-10-24T14:25:12.314Z,100553.72
2017-10-24T14:27:38.326Z,100562.19
2017-10-24T14:30:04.299Z,100559.66
2017-10-24T14:32:30.272Z,100560.94
2017-10-24T14:34:56.244Z,100562.19
2017-10-24T14:37:22.201Z,100560.48
2017-10-24T14:39:48.144Z,100560.48
2017-10-24T14:42:14.079Z,100560.91
2017-10-24T14:44:40.052Z,100554.16
2017-10-24T14:47:06.004Z,100553.30
2017-10-24T14:49:31.951Z,100559.65
2017-10-24T14:51:57.900Z,100561.77
2017-10-24T14:54:23.876Z,100560.91
2017-10-24T14:56:49.808Z,100559.20
2017-10-24T14:59:15.754Z,100552.44
2017-10-24T15:01:41.692Z,100544.82
2017-10-24T15:04:07.649Z,100541.85
2017-10-24T15:06:33.622Z,100541.00
2017-10-24T15:08:59.578Z,100539.73
2017-10-24T15:11:25.528Z,100532.95
2017-10-24T15:13:51.483Z,100529.56
2017-10-24T15:16:17.477Z,100539.73
2017-10-24T15:18:43.424Z,100538.48
2017-10-24T15:21:09.479Z,100546.09
2017-10-24T15:23:35.500Z,100547.36
2017-10-24T15:26:01.470Z,100553.29
2017-10-24T15:28:27.451Z,100549.90
2017-10-24T15:30:53.415Z,100548.66
2017-10-24T15:33:19.372Z,100549.50
2017-10-24T15:35:45.318Z,100554.99
2017-10-24T15:38:11.294Z,100554.17
2017-10-24T15:40:37.260Z,100565.59
2017-10-24T15:43:03.230Z,100567.28
2017-10-24T15:45:29.211Z,100563.88
2017-10-24T15:47:55.317Z,100571.52
2017-10-24T15:50:21.311Z,100577.44
2017-10-24T15:52:47.312Z,100569.80
2017-10-24T15:55:13.553Z,100575.70
2017-10-24T15:57:39.507Z,100577.42
2017-10-24T16:00:05.503Z,100578.69
2017-10-24T16:02:31.474Z,100592.20
2017-10-24T16:04:57.436Z,100593.48
2017-10-24T16:07:23.449Z,100589.67
2017-10-24T16:09:49.420Z,100583.75
2017-10-24T16:12:15.468Z,100581.61
2017-10-24T16:14:41.404Z,100580.75
2017-10-24T16:17:07.401Z,100590.94
2017-10-24T16:19:33.385Z,100587.96
2017-10-24T16:21:59.352Z,100586.27
2017-10-24T16:24:25.397Z,100577.38
2017-10-24T16:26:51.461Z,100569.77
2017-10-24T16:29:20.509Z,100573.16
2017-10-24T16:31:47.913Z,100571.03
2017-10-24T16:34:13.921Z,100568.08
2017-10-24T16:36:40.212Z,100581.59
2017-10-24T16:39:06.435Z,100587.54
2017-10-24T16:41:32.550Z,100590.55
2017-10-24T16:43:58.582Z,100580.77
2017-10-24T16:46:24.621Z,100578.23
2017-10-24T16:48:50.627Z,100572.30
2017-10-24T16:51:16.618Z,100565.10
2017-10-24T16:53:42.597Z,100565.48
2017-10-24T16:56:08.625Z,100572.27
2017-10-24T16:58:34.643Z,100572.73
2017-10-24T17:01:00.604Z,100568.86
2017-10-24T17:03:26.574Z,100576.91
2017-10-24T17:05:52.630Z,100585.38
2017-10-24T17:08:18.623Z,100584.12
2017-10-24T17:10:44.645Z,100590.02
2017-10-24T17:13:10.616Z,100588.33
2017-10-24T17:15:36.755Z,100590.88
2017-10-24T17:18:02.729Z,100586.67
2017-10-24T17:20:28.688Z,100590.80
2017-10-24T17:22:54.669Z,100582.38
2017-10-24T17:25:20.630Z,100575.56
2017-10-24T17:27:46.661Z,100577.31
2017-10-24T17:30:12.626Z,100574.28
2017-10-24T17:32:38.583Z,100572.60
2017-10-24T17:35:04.560Z,100581.03
2017-10-24T17:37:30.512Z,100586.07
2017-10-24T17:39:56.462Z,100583.99
2017-10-24T17:42:22.459Z,100584.77
2017-10-24T17:44:48.436Z,100589.91
2017-10-24T17:47:14.389Z,100577.27
2017-10-24T17:49:40.406Z,100576.36
2017-10-24T17:52:06.438Z,100566.66
2017-10-24T17:54:32.396Z,100560.35
2017-10-24T17:56:58.386Z,100553.56
2017-10-24T17:59:24.361Z,100543.80
2017-10-24T18:01:50.318Z,100549.70
2017-10-24T18:04:16.290Z,100546.36
2017-10-24T18:06:42.284Z,100550.56
2017-10-24T18:09:08.250Z,100548.50
2017-10-24T18:11:34.227Z,100539.63
2017-10-24T18:14:00.176Z,100538.78
2017-10-24T18:16:26.221Z,100537.94
2017-10-24T18:18:52.207Z,100539.69
2017-10-24T18:21:19.132Z,100529.86
2017-10-24T18:23:45.120Z,100527.31
2017-10-24T18:26:11.100Z,100528.53
2017-10-24T18:28:37.108Z,100524.34
2017-10-24T18:31:03.035Z,100532.44
2017-10-24T18:33:28.996Z,100530.81
2017-10-24T18:35:54.970Z,100527.00
2017-10-24T18:38:21.610Z,100526.17
2017-10-24T18:40:47.573Z,100519.39
2017-10-24T18:43:13.518Z,100518.48
2017-10-24T18:45:39.470Z,100514.30
2017-10-24T18:48:05.634Z,100507.98
2017-10-24T18:50:31.632Z,100505.41
2017-10-24T18:52:58.262Z,100509.66
2017-10-24T18:55:24.228Z,100503.21
2017-10-24T18:57:50.202Z,100503.23
2017-10-24T19:00:16.189Z,100500.70
2017-10-24T19:02:42.168Z,100497.28
2017-10-24T19:05:08.168Z,100495.63
2017-10-24T19:07:34.132Z,100494.87
2017-10-24T19:10:00.099Z,100484.27
2017-10-24T19:12:26.289Z,100476.68
2017-10-24T19:14:52.312Z,100472.45
2017-10-24T19:17:18.339Z,100475.83
2017-10-24T19:19:44.324Z,100467.37
2017-10-24T19:22:10.276Z,100458.08
2017-10-24T19:24:36.243Z,100456.38
2017-10-24T19:27:02.217Z,100462.30
2017-10-24T19:29:28.174Z,100457.66
2017-10-24T19:31:54.143Z,100463.58
2017-10-24T19:34:20.167Z,100472.45
2017-10-24T19:36:46.120Z,100469.48
2017-10-24T19:39:12.070Z,100448.34
2017-10-24T19:41:38.128Z,100448.33
2017-10-24T19:44:04.158Z,100458.91
2017-10-24T19:46:30.177Z,100457.23
2017-10-24T19:48:56.216Z,100459.75
2017-10-24T19:51:22.193Z,100454.25
2017-10-24T19:53:48.177Z,100443.27
2017-10-24T19:56:14.208Z,100441.10
2017-10-24T19:58:40.184Z,100431.38
2017-10-24T20:01:06.177Z,100424.66
2017-10-24T20:03:32.146Z,100417.45
2017-10-24T20:05:58.190Z,100415.34
2017-10-24T20:08:24.192Z,100418.72
2017-10-24T20:10:50.234Z,100425.94
2017-10-24T20:13:16.228Z,100426.75
2017-10-24T20:15:42.278Z,100419.98
2017-10-24T20:18:08.232Z,100412.81
2017-10-24T20:20:34.205Z,100414.49
2017-10-24T20:23:00.261Z,100400.54
2017-10-24T20:25:26.204Z,100404.78
2017-10-24T20:27:52.198Z,100398.00
2017-10-24T20:30:18.164Z,100398.42
2017-10-24T20:32:44.136Z,100400.11
2017-10-24T20:35:10.064Z,100389.52
2017-10-24T20:37:36.064Z,100379.78
2017-10-24T20:40:02.089Z,100374.28
2017-10-24T20:42:28.064Z,100367.52
2017-10-24T20:44:54.074Z,100366.25
2017-10-24T20:47:20.078Z,100369.23
2017-10-24T20:49:46.027Z,100367.50
2017-10-24T20:52:12.236Z,100373.01
2017-10-24T20:54:38.216Z,100372.98
2017-10-24T20:57:04.164Z,100366.23
2017-10-24T20:59:30.116Z,100360.74
2017-10-24T21:01:56.069Z,100370.04
2017-10-24T21:04:22.022Z,100367.50
2017-10-24T21:06:48.049Z,100373.83
2017-10-24T21:09:13.998Z,100377.62
2017-10-24T21:11:40.017Z,100377.65
2017-10-24T21:14:05.968Z,100383.13
2017-10-24T21:16:31.912Z,100402.59
2017-10-24T21:18:57.912Z,100415.30
2017-10-24T21:21:23.942Z,100426.73
2017-10-24T21:23:49.909Z,100426.73
2017-10-24T21:26:15.862Z,100425.89
2017-10-24T21:28:41.825Z,100413.64
2017-10-24T21:31:07.792Z,100400.07
2017-10-24T21:33:33.742Z,100406.83
2017-10-24T21:35:59.716Z,100407.26
2017-10-24T21:38:26.163Z,100411.92
2017-10-24T21:40:52.534Z,100425.02
2017-10-24T21:43:18.494Z,100428.02
2017-10-24T21:45:44.448Z,100424.19
2017-10-24T21:48:10.420Z,100418.70
2017-10-24T21:50:36.373Z,100426.27
2017-10-24T21:53:02.319Z,100433.47
2017-10-24T21:55:28.301Z,100447.47
2017-10-24T21:57:54.243Z,100445.34
2017-10-24T22:00:20.208Z,100451.28
2017-10-24T22:02:46.179Z,100455.11
2017-10-24T22:05:12.164Z,100449.58
2017-10-24T22:07:38.114Z,100445.38
2017-10-24T22:10:04.266Z,100444.97
2017-10-24T22:12:30.236Z,100434.78
2017-10-24T22:14:56.180Z,100434.80
2017-10-24T22:17:22.157Z,100439.45
2017-10-24T22:19:48.104Z,100445.81
2017-10-24T22:22:14.074Z,100447.48
2017-10-24T22:24:40.034Z,100447.92
2017-10-24T22:27:05.974Z,100449.19
2017-10-24T22:29:31.916Z,100442.01
2017-10-24T22:31:57.959Z,100438.61
2017-10-24T22:34:23.923Z,100435.21
2017-10-24T22:36:49.896Z,100434.77
2017-10-24T22:39:15.962Z,100434.34
2017-10-24T22:41:41.915Z,100425.45
2017-10-24T22:44:07.862Z,100422.09
2017-10-24T22:46:33.870Z,100427.58
2017-10-24T22:48:59.827Z,100426.73
2017-10-24T22:51:25.800Z,100420.36
2017-10-24T22:53:51.757Z,100416.11
2017-10-24T22:56:17.734Z,100416.13
2017-10-24T22:58:43.742Z,100406.78
2017-10-24T23:01:10.059Z,100413.58
2017-10-24T23:03:36.008Z,100412.75
2017-10-24T23:06:01.966Z,100420.78
2017-10-24T23:08:27.892Z,100417.83
2017-10-24T23:10:53.875Z,100418.68
2017-10-24T23:13:19.831Z,100418.67
2017-10-24T23:15:45.785Z,100425.88
2017-10-24T23:18:11.772Z,100422.03
2017-10-24T23:20:37.728Z,100424.13
2017-10-24T23:23:03.678Z,100408.09
2017-10-24T23:25:29.624Z,100408.11
2017-10-24T23:27:55.588Z,100416.56
2017-10-24T23:30:21.529Z,100418.31
2017-10-24T23:32:47.481Z,100417.47
2017-10-24T23:35:13.500Z,100413.66
2017-10-24T23:37:39.465Z,100411.53
2017-10-24T23:40:05.448Z,100406.88
2017-10-24T23:42:31.417Z,100400.95
2017-10-24T23:44:57.391Z,100403.52
2017-10-24T23:47:23.357Z,100403.92
2017-10-24T23:49:49.354Z,100402.22
2017-10-24T23:52:15.297Z,100401.81
2017-10-24T23:54:41.324Z,100403.92
2017-10-24T23:57:07.280Z,100398.42
2017-10-24T23:59:33.263Z,100396.32
